createdAt,value
2019-01-25T00:00:38.978Z,30.29
2019-01-25T00:03:42.671Z,30.28
2019-01-25T00:06:47.166Z,30.23
2019-01-25T00:09:58.489Z,30.23
2019-01-25T00:12:57.060Z,30.23
2019-01-25T00:16:01.632Z,30.21
2019-01-25T00:19:05.330Z,30.19
2019-01-25T00:22:08.779Z,30.20
2019-01-25T00:25:12.260Z,30.19
2019-01-25T00:28:15.742Z,30.20
2019-01-25T00:31:19.202Z,30.19
2019-01-25T00:34:22.662Z,30.17
2019-01-25T00:37:26.242Z,30.18
2019-01-25T00:40:29.763Z,30.22
2019-01-25T00:43:33.257Z,30.19
2019-01-25T00:46:36.745Z,30.23
2019-01-25T00:49:40.477Z,30.20
2019-01-25T00:52:43.953Z,30.21
2019-01-25T00:55:47.565Z,30.20
2019-01-25T00:58:51.227Z,30.21
2019-01-25T01:01:54.879Z,30.23
2019-01-25T01:04:58.388Z,30.23
2019-01-25T01:08:03.080Z,30.26
2019-01-25T01:11:06.615Z,30.27
2019-01-25T01:14:10.113Z,30.29
2019-01-25T01:17:13.574Z,30.33
2019-01-25T01:20:17.952Z,30.32
2019-01-25T01:23:21.455Z,30.29
2019-01-25T01:26:24.939Z,30.32
2019-01-25T01:29:28.428Z,30.32
2019-01-25T01:32:31.926Z,30.30
2019-01-25T01:35:35.441Z,30.29
2019-01-25T01:38:38.945Z,30.28
2019-01-25T01:41:42.442Z,30.26
2019-01-25T01:44:45.948Z,30.27
2019-01-25T01:47:49.428Z,30.24
2019-01-25T01:50:52.936Z,30.23
2019-01-25T01:53:57.454Z,30.21
2019-01-25T01:57:00.952Z,30.20
2019-01-25T02:00:06.912Z,30.20
2019-01-25T02:03:10.428Z,30.22
2019-01-25T02:06:13.932Z,30.21
2019-01-25T02:09:17.404Z,30.20
2019-01-25T02:12:20.933Z,30.19
2019-01-25T02:15:24.924Z,30.20
2019-01-25T02:18:28.532Z,30.16
2019-01-25T02:21:32.114Z,30.18
2019-01-25T02:24:36.757Z,30.20
2019-01-25T02:27:40.288Z,30.21
2019-01-25T02:30:45.853Z,30.20
2019-01-25T02:33:49.299Z,30.21
2019-01-25T02:36:52.815Z,30.21
2019-01-25T02:39:56.410Z,30.19
2019-01-25T02:43:00.029Z,30.20
2019-01-25T02:46:03.543Z,30.21
2019-01-25T02:49:07.031Z,30.21
2019-01-25T02:52:10.540Z,30.24
2019-01-25T02:55:14.197Z,30.22
2019-01-25T02:58:18.747Z,30.25
2019-01-25T03:01:22.283Z,30.26
2019-01-25T03:04:25.757Z,30.25
2019-01-25T03:07:29.255Z,30.25
2019-01-25T03:10:32.772Z,30.27
2019-01-25T03:13:36.256Z,30.27
2019-01-25T03:16:40.796Z,30.27
2019-01-25T03:19:44.280Z,30.24
2019-01-25T03:22:48.831Z,30.25
2019-01-25T03:25:52.313Z,30.24
2019-01-25T03:28:55.812Z,30.24
2019-01-25T03:32:00.355Z,30.20
2019-01-25T03:35:04.354Z,30.21
2019-01-25T03:38:07.953Z,30.22
2019-01-25T03:41:12.472Z,30.21
2019-01-25T03:44:17.007Z,30.21
2019-01-25T03:47:21.516Z,30.21
2019-01-25T03:50:26.868Z,30.23
2019-01-25T03:53:31.397Z,30.19
2019-01-25T03:56:34.894Z,30.19
2019-01-25T03:59:39.463Z,30.20
2019-01-25T04:02:43.126Z,30.20
2019-01-25T04:05:46.574Z,30.21
2019-01-25T04:08:50.131Z,30.21
2019-01-25T04:11:54.673Z,30.20
2019-01-25T04:14:58.139Z,30.20
2019-01-25T04:18:01.657Z,30.20
2019-01-25T04:21:11.929Z,30.20
2019-01-25T04:24:15.409Z,30.21
2019-01-25T04:27:20.959Z,30.20
2019-01-25T04:30:26.400Z,30.20
2019-01-25T04:33:30.037Z,30.21
2019-01-25T04:36:33.494Z,30.20
2019-01-25T04:39:37.015Z,30.20
2019-01-25T04:42:40.508Z,30.21
2019-01-25T04:45:44.009Z,30.22
2019-01-25T04:48:47.537Z,30.22
2019-01-25T04:51:51.025Z,30.21
2019-01-25T04:54:54.513Z,30.22
2019-01-25T04:58:10.508Z,30.21
2019-01-25T05:01:14.126Z,30.20
2019-01-25T05:04:17.643Z,30.21
2019-01-25T05:07:21.225Z,30.21
2019-01-25T05:10:24.735Z,30.21
2019-01-25T05:13:28.245Z,30.20
2019-01-25T05:16:31.740Z,30.19
2019-01-25T05:19:40.021Z,30.20
2019-01-25T05:22:44.677Z,30.19
2019-01-25T05:25:48.199Z,30.18
2019-01-25T05:28:51.670Z,30.19
2019-01-25T05:31:55.165Z,30.19
2019-01-25T05:34:58.655Z,30.18
2019-01-25T05:38:02.181Z,30.16
2019-01-25T05:41:05.674Z,30.17
2019-01-25T05:44:09.229Z,30.16
2019-01-25T05:47:13.687Z,30.17
2019-01-25T05:50:17.235Z,30.15
2019-01-25T05:53:20.901Z,30.16
2019-01-25T05:56:24.395Z,30.16
2019-01-25T05:59:27.894Z,30.16
2019-01-25T06:02:31.446Z,30.16
2019-01-25T06:05:34.909Z,30.17
2019-01-25T06:08:43.859Z,30.17
2019-01-25T06:11:43.731Z,30.15
2019-01-25T06:14:47.261Z,30.18
2019-01-25T06:17:50.766Z,30.20
2019-01-25T06:20:57.504Z,30.19
2019-01-25T06:24:03.060Z,30.19
2019-01-25T06:27:06.583Z,30.16
2019-01-25T06:30:12.905Z,30.20
2019-01-25T06:33:16.443Z,30.17
2019-01-25T06:36:19.947Z,30.20
2019-01-25T06:39:25.484Z,30.19
2019-01-25T06:42:28.986Z,30.21
2019-01-25T06:45:32.492Z,30.20
2019-01-25T06:48:36.006Z,30.22
2019-01-25T06:51:41.537Z,30.21
2019-01-25T06:54:45.047Z,30.21
2019-01-25T06:57:55.363Z,30.22
2019-01-25T07:01:04.395Z,30.21
2019-01-25T07:04:08.864Z,30.19
2019-01-25T07:07:29.316Z,30.19
2019-01-25T07:10:32.866Z,30.19
2019-01-25T07:13:37.388Z,30.17
2019-01-25T07:16:40.883Z,30.15
2019-01-25T07:19:44.382Z,30.16
2019-01-25T07:22:48.902Z,30.16
2019-01-25T07:25:52.452Z,30.17
2019-01-25T07:28:56.939Z,30.16
2019-01-25T07:32:00.474Z,30.15
2019-01-25T07:35:04.980Z,30.14
2019-01-25T07:38:08.437Z,30.15
2019-01-25T07:41:13.072Z,30.14
2019-01-25T07:44:16.698Z,30.15
2019-01-25T07:47:20.293Z,30.17
2019-01-25T07:50:23.901Z,30.58
2019-01-25T07:53:27.413Z,31.00
2019-01-25T07:56:30.959Z,31.23
2019-01-25T07:59:34.398Z,31.38
2019-01-25T08:02:37.898Z,31.47
2019-01-25T08:05:41.505Z,31.54
2019-01-25T08:08:45.108Z,31.56
2019-01-25T08:11:48.620Z,31.58
2019-01-25T08:14:52.161Z,31.60
2019-01-25T08:17:55.639Z,31.66
2019-01-25T08:20:59.128Z,31.76
2019-01-25T08:24:02.622Z,31.71
2019-01-25T08:27:06.213Z,31.72
2019-01-25T08:30:12.080Z,31.74
2019-01-25T08:33:16.763Z,31.68
2019-01-25T08:36:20.300Z,31.55
2019-01-25T08:39:23.815Z,31.54
2019-01-25T08:42:27.312Z,31.48
2019-01-25T08:45:30.818Z,31.58
2019-01-25T08:48:34.317Z,31.48
2019-01-25T08:51:38.126Z,31.43
2019-01-25T08:54:41.909Z,31.59
2019-01-25T08:57:45.408Z,31.61
2019-01-25T09:00:49.925Z,31.63
2019-01-25T09:03:53.449Z,31.60
2019-01-25T09:06:56.935Z,31.62
2019-01-25T09:10:00.450Z,31.52
2019-01-25T09:13:03.950Z,31.48
2019-01-25T09:16:07.455Z,31.39
2019-01-25T09:19:11.958Z,31.24
2019-01-25T09:22:15.561Z,31.29
2019-01-25T09:25:19.191Z,31.26
2019-01-25T09:28:23.808Z,31.22
2019-01-25T09:31:27.525Z,31.09
2019-01-25T09:34:31.118Z,31.16
2019-01-25T09:37:34.652Z,31.06
2019-01-25T09:40:38.131Z,31.08
2019-01-25T09:43:41.725Z,30.98
2019-01-25T09:46:45.412Z,31.03
2019-01-25T09:49:49.241Z,30.97
2019-01-25T09:52:53.213Z,30.92
2019-01-25T09:55:58.188Z,30.72
2019-01-25T09:59:01.930Z,30.68
2019-01-25T10:02:06.609Z,30.68
2019-01-25T10:05:10.285Z,30.62
2019-01-25T10:08:13.966Z,30.68
2019-01-25T10:11:17.446Z,30.56
2019-01-25T10:14:21.678Z,30.53
2019-01-25T10:17:25.281Z,30.47
2019-01-25T10:20:28.840Z,30.41
2019-01-25T10:23:32.480Z,30.39
2019-01-25T10:26:37.079Z,30.37
2019-01-25T10:29:42.652Z,30.34
2019-01-25T10:32:46.230Z,30.30
2019-01-25T10:35:50.905Z,30.30
2019-01-25T10:38:54.453Z,30.26
2019-01-25T10:42:00.032Z,30.22
2019-01-25T10:45:04.682Z,30.24
2019-01-25T10:48:08.939Z,30.22
2019-01-25T10:51:12.576Z,30.17
2019-01-25T10:54:16.080Z,30.14
2019-01-25T10:57:19.548Z,30.11
2019-01-25T11:00:23.366Z,30.11
2019-01-25T11:03:26.998Z,30.05
2019-01-25T11:06:31.678Z,30.06
2019-01-25T11:09:38.023Z,30.05
2019-01-25T11:12:43.143Z,30.00
2019-01-25T11:15:46.722Z,30.00
2019-01-25T11:18:50.316Z,29.98
2019-01-25T11:21:53.925Z,29.92
2019-01-25T11:24:57.424Z,29.91
2019-01-25T11:28:00.925Z,29.91
2019-01-25T11:31:04.454Z,29.85
2019-01-25T11:34:08.935Z,29.82
2019-01-25T11:37:12.473Z,29.82
2019-01-25T11:40:21.803Z,29.77
2019-01-25T11:43:25.391Z,29.73
2019-01-25T11:46:28.898Z,29.73
2019-01-25T11:49:32.390Z,29.68
2019-01-25T11:52:37.932Z,29.71
2019-01-25T11:55:41.464Z,29.70
2019-01-25T11:58:45.986Z,29.67
2019-01-25T12:01:49.493Z,29.63
2019-01-25T12:04:52.981Z,29.62
2019-01-25T12:07:56.472Z,29.63
2019-01-25T12:11:00.076Z,29.62
2019-01-25T12:14:03.658Z,29.62
2019-01-25T12:17:07.187Z,29.59
2019-01-25T12:20:14.059Z,29.55
2019-01-25T12:23:17.757Z,29.56
2019-01-25T12:26:21.371Z,29.51
2019-01-25T12:29:24.920Z,29.56
2019-01-25T12:32:28.655Z,29.52
2019-01-25T12:35:34.769Z,29.51
2019-01-25T12:38:38.231Z,29.52
2019-01-25T12:41:41.802Z,29.46
2019-01-25T12:44:45.461Z,29.46
2019-01-25T12:47:48.955Z,29.42
2019-01-25T12:51:05.573Z,29.49
2019-01-25T12:54:09.145Z,29.46
2019-01-25T12:57:12.765Z,29.46
2019-01-25T13:00:16.639Z,29.38
2019-01-25T13:03:20.218Z,29.40
2019-01-25T13:06:24.999Z,29.35
2019-01-25T13:09:28.599Z,29.37
2019-01-25T13:12:32.120Z,29.38
2019-01-25T13:15:35.606Z,29.37
2019-01-25T13:18:41.156Z,29.37
2019-01-25T13:21:45.686Z,29.33
2019-01-25T13:24:49.184Z,29.35
2019-01-25T13:27:54.745Z,29.33
2019-01-25T13:30:58.241Z,29.34
2019-01-25T13:34:02.860Z,29.28
2019-01-25T13:37:06.486Z,29.32
2019-01-25T13:40:14.980Z,29.29
2019-01-25T13:43:18.601Z,29.29
2019-01-25T13:46:22.087Z,29.27
2019-01-25T13:49:25.613Z,29.21
2019-01-25T13:52:29.097Z,29.25
2019-01-25T13:55:32.721Z,29.26
2019-01-25T13:58:36.284Z,29.24
2019-01-25T14:01:41.190Z,29.23
2019-01-25T14:04:44.725Z,29.24
2019-01-25T14:07:48.227Z,29.18
2019-01-25T14:10:51.758Z,29.22
2019-01-25T14:13:55.230Z,29.17
2019-01-25T14:16:59.872Z,29.21
2019-01-25T14:20:04.724Z,29.15
2019-01-25T14:23:11.296Z,29.14
2019-01-25T14:26:14.842Z,29.13
2019-01-25T14:29:18.464Z,29.16
2019-01-25T14:32:23.013Z,29.18
2019-01-25T14:35:26.539Z,29.11
2019-01-25T14:38:30.109Z,29.12
2019-01-25T14:41:33.732Z,29.10
2019-01-25T14:44:37.266Z,29.09
2019-01-25T14:47:40.915Z,29.09
2019-01-25T14:50:44.455Z,29.09
2019-01-25T14:53:50.935Z,29.07
2019-01-25T14:56:53.272Z,29.08
2019-01-25T14:59:56.909Z,29.03
2019-01-25T15:03:00.479Z,29.03
2019-01-25T15:06:04.083Z,29.00
2019-01-25T15:09:09.532Z,29.02
2019-01-25T15:12:13.129Z,28.97
2019-01-25T15:15:16.805Z,28.99
2019-01-25T15:18:20.453Z,29.01
2019-01-25T15:21:23.939Z,28.96
2019-01-25T15:24:28.443Z,28.97
2019-01-25T15:27:31.957Z,28.96
2019-01-25T15:30:36.583Z,28.95
2019-01-25T15:33:40.179Z,28.97
2019-01-25T15:36:43.747Z,28.95
2019-01-25T15:39:47.283Z,28.95
2019-01-25T15:42:50.736Z,28.95
2019-01-25T15:45:55.222Z,28.94
2019-01-25T15:48:58.724Z,28.93
2019-01-25T15:52:02.228Z,28.94
2019-01-25T15:55:06.223Z,28.94
2019-01-25T15:58:09.850Z,28.96
2019-01-25T16:01:14.355Z,28.90
2019-01-25T16:04:19.914Z,28.87
2019-01-25T16:07:23.431Z,28.89
2019-01-25T16:10:26.914Z,28.91
2019-01-25T16:13:30.432Z,28.89
2019-01-25T16:16:33.942Z,28.88
2019-01-25T16:19:37.425Z,28.87
2019-01-25T16:22:41.020Z,28.87
2019-01-25T16:25:44.629Z,28.88
2019-01-25T16:28:49.166Z,28.84
2019-01-25T16:31:52.667Z,28.88
2019-01-25T16:34:56.142Z,28.82
2019-01-25T16:37:59.709Z,28.84
2019-01-25T16:41:03.134Z,28.80
2019-01-25T16:44:06.693Z,28.81
2019-01-25T16:47:10.271Z,28.82
2019-01-25T16:50:15.016Z,28.81
2019-01-25T16:53:18.606Z,28.79
2019-01-25T16:56:23.115Z,28.79
2019-01-25T16:59:26.613Z,28.79
2019-01-25T17:02:32.166Z,28.81
2019-01-25T17:05:37.724Z,28.79
2019-01-25T17:08:41.214Z,28.75
2019-01-25T17:11:44.736Z,28.78
2019-01-25T17:14:49.034Z,28.79
2019-01-25T17:17:52.566Z,28.76
2019-01-25T17:20:57.061Z,28.78
2019-01-25T17:24:00.575Z,28.77
2019-01-25T17:27:08.185Z,28.80
2019-01-25T17:30:25.278Z,28.78
2019-01-25T17:33:28.891Z,28.76
2019-01-25T17:36:33.401Z,28.78
2019-01-25T17:39:37.998Z,28.77
2019-01-25T17:42:41.721Z,28.78
2019-01-25T17:45:45.348Z,28.77
2019-01-25T17:48:49.712Z,28.79
2019-01-25T17:51:53.407Z,28.76
2019-01-25T17:54:56.887Z,28.76
2019-01-25T17:58:08.026Z,28.79
2019-01-25T18:01:07.775Z,28.80
2019-01-25T18:04:11.305Z,28.73
2019-01-25T18:07:14.776Z,28.76
2019-01-25T18:10:18.296Z,28.74
2019-01-25T18:13:21.766Z,28.74
2019-01-25T18:16:25.309Z,28.73
2019-01-25T18:19:28.838Z,28.78
2019-01-25T18:22:32.489Z,28.74
2019-01-25T18:25:41.807Z,28.77
2019-01-25T18:29:00.859Z,28.71
2019-01-25T18:32:04.784Z,28.71
2019-01-25T18:35:08.400Z,28.72
2019-01-25T18:38:11.910Z,28.66
2019-01-25T18:41:15.395Z,28.70
2019-01-25T18:44:18.849Z,28.58
2019-01-25T18:47:23.416Z,28.58
2019-01-25T18:50:28.967Z,28.56
2019-01-25T18:53:32.468Z,28.53
2019-01-25T18:56:36.342Z,28.54
2019-01-25T18:59:39.927Z,28.55
2019-01-25T19:02:43.389Z,28.57
2019-01-25T19:05:46.898Z,28.53
2019-01-25T19:08:50.408Z,28.58
2019-01-25T19:11:53.938Z,28.57
2019-01-25T19:15:04.129Z,28.54
2019-01-25T19:18:02.744Z,28.57
2019-01-25T19:21:06.244Z,28.56
2019-01-25T19:24:10.831Z,28.57
2019-01-25T19:27:14.473Z,28.54
2019-01-25T19:30:26.537Z,28.55
2019-01-25T19:33:30.128Z,28.55
2019-01-25T19:36:35.608Z,28.55
2019-01-25T19:39:39.240Z,28.54
2019-01-25T19:42:42.843Z,28.54
2019-01-25T19:45:46.348Z,28.52
2019-01-25T19:48:49.836Z,28.52
2019-01-25T19:51:54.425Z,28.51
2019-01-25T19:54:58.061Z,28.53
2019-01-25T19:58:01.655Z,28.50
2019-01-25T20:01:06.346Z,28.52
2019-01-25T20:04:09.998Z,28.49
2019-01-25T20:07:13.657Z,28.53
2019-01-25T20:10:17.578Z,28.52
2019-01-25T20:13:21.199Z,28.50
2019-01-25T20:16:24.807Z,28.47
2019-01-25T20:19:28.322Z,28.46
2019-01-25T20:22:31.926Z,28.45
2019-01-25T20:25:36.546Z,28.42
2019-01-25T20:28:40.062Z,28.45
2019-01-25T20:31:43.582Z,28.47
2019-01-25T20:34:47.078Z,28.38
2019-01-25T20:37:50.548Z,28.42
2019-01-25T20:40:54.062Z,28.43
2019-01-25T20:43:57.563Z,28.43
2019-01-25T20:47:01.058Z,28.42
2019-01-25T20:50:05.481Z,28.42
2019-01-25T20:53:10.392Z,28.43
2019-01-25T20:56:14.019Z,28.43
2019-01-25T20:59:17.540Z,28.41
2019-01-25T21:02:24.090Z,28.44
2019-01-25T21:05:27.709Z,28.43
2019-01-25T21:08:32.320Z,28.42
2019-01-25T21:11:35.824Z,28.43
2019-01-25T21:14:39.333Z,28.43
2019-01-25T21:17:42.821Z,28.44
2019-01-25T21:20:47.352Z,28.39
2019-01-25T21:23:51.872Z,28.43
2019-01-25T21:26:57.422Z,28.42
2019-01-25T21:30:00.951Z,28.43
2019-01-25T21:33:06.503Z,28.43
2019-01-25T21:36:12.145Z,28.42
2019-01-25T21:39:15.718Z,28.42
2019-01-25T21:42:20.264Z,28.40
2019-01-25T21:45:25.813Z,28.41
2019-01-25T21:48:30.336Z,28.38
2019-01-25T21:51:39.116Z,28.39
2019-01-25T21:54:43.684Z,28.38
2019-01-25T21:57:47.183Z,28.37
2019-01-25T22:00:50.692Z,28.37
2019-01-25T22:03:54.193Z,28.38
2019-01-25T22:06:57.702Z,28.36
2019-01-25T22:10:01.191Z,28.36
2019-01-25T22:13:04.888Z,28.36
2019-01-25T22:16:08.399Z,28.38
2019-01-25T22:19:11.884Z,28.36
2019-01-25T22:22:15.397Z,28.38
2019-01-25T22:25:19.923Z,28.37
2019-01-25T22:28:24.439Z,28.36
2019-01-25T22:31:30.005Z,28.36
2019-01-25T22:34:33.487Z,28.36
2019-01-25T22:37:38.941Z,28.34
2019-01-25T22:40:43.570Z,28.36
2019-01-25T22:43:47.075Z,28.37
2019-01-25T22:46:50.544Z,28.33
2019-01-25T22:49:54.087Z,28.36
2019-01-25T22:52:59.611Z,28.37
2019-01-25T22:56:03.135Z,28.33
2019-01-25T22:59:06.635Z,28.33
2019-01-25T23:02:10.194Z,28.35
2019-01-25T23:05:28.384Z,28.33
2019-01-25T23:08:31.871Z,28.36
2019-01-25T23:11:35.369Z,28.33
2019-01-25T23:14:38.875Z,28.34
2019-01-25T23:17:42.406Z,28.30
2019-01-25T23:20:45.885Z,28.34
2019-01-25T23:23:49.369Z,28.31
2019-01-25T23:26:54.916Z,28.31
2019-01-25T23:30:00.492Z,28.32
2019-01-25T23:33:04.095Z,28.32
2019-01-25T23:36:07.583Z,28.30
2019-01-25T23:39:11.657Z,28.31
2019-01-25T23:42:15.306Z,28.29
2019-01-25T23:45:18.798Z,28.30
2019-01-25T23:48:23.319Z,28.31
2019-01-25T23:51:27.845Z,28.29
2019-01-25T23:54:31.347Z,28.28
2019-01-25T23:57:34.870Z,28.28
